sensor_id;sensor_type;location;lat;lon;timestamp;temperature;humidity
37410;DHT22;23275;48.914;12.566;2023-05-29T00:00:44;13.20;99.90
37410;DHT22;23275;48.914;12.566;2023-05-29T00:03:10;13.20;99.90
37410;DHT22;23275;48.914;12.566;2023-05-29T00:05:35;13.30;99.90
37410;DHT22;23275;48.914;12.566;2023-05-29T00:08:01;13.20;99.90
37410;DHT22;23275;48.914;12.566;2023-05-29T00:10:27;13.20;99.90
37410;DHT22;23275;48.914;12.566;2023-05-29T00:12:53;13.20;99.90
37410;DHT22;23275;48.914;12.566;2023-05-29T00:15:21;13.20;99.90
37410;DHT22;23275;48.914;12.566;2023-05-29T00:17:46;13.30;99.90
37410;DHT22;23275;48.914;12.566;2023-05-29T00:20:12;13.30;99.90
37410;DHT22;23275;48.914;12.566;2023-05-29T00:22:37;13.30;99.90
37410;DHT22;23275;48.914;12.566;2023-05-29T00:25:07;13.40;99.90
37410;DHT22;23275;48.914;12.566;2023-05-29T00:27:34;13.40;99.90
37410;DHT22;23275;48.914;12.566;2023-05-29T00:30:00;13.40;99.90
37410;DHT22;23275;48.914;12.566;2023-05-29T00:32:26;13.40;99.90
37410;DHT22;23275;48.914;12.566;2023-05-29T00:34:53;13.50;99.90
37410;DHT22;23275;48.914;12.566;2023-05-29T00:37:18;13.40;99.90
37410;DHT22;23275;48.914;12.566;2023-05-29T00:39:47;13.40;99.90
37410;DHT22;23275;48.914;12.566;2023-05-29T00:42:13;13.40;99.90
37410;DHT22;23275;48.914;12.566;2023-05-29T00:44:38;13.30;99.90
37410;DHT22;23275;48.914;12.566;2023-05-29T00:47:04;13.30;99.90
37410;DHT22;23275;48.914;12.566;2023-05-29T00:49:29;13.30;99.90
37410;DHT22;23275;48.914;12.566;2023-05-29T00:51:55;13.20;99.90
37410;DHT22;23275;48.914;12.566;2023-05-29T00:54:28;13.20;99.90
37410;DHT22;23275;48.914;12.566;2023-05-29T00:56:57;13.20;99.90
37410;DHT22;23275;48.914;12.566;2023-05-29T00:59:25;13.10;99.90
37410;DHT22;23275;48.914;12.566;2023-05-29T01:01:52;13.10;99.90
37410;DHT22;23275;48.914;12.566;2023-05-29T01:04:18;13.10;99.90
37410;DHT22;23275;48.914;12.566;2023-05-29T01:06:46;13.00;99.90
37410;DHT22;23275;48.914;12.566;2023-05-29T01:09:11;13.00;99.90
37410;DHT22;23275;48.914;12.566;2023-05-29T01:17:17;12.90;99.90
37410;DHT22;23275;48.914;12.566;2023-05-29T01:28:09;12.80;99.90
37410;DHT22;23275;48.914;12.566;2023-05-29T01:30:37;12.80;99.90
37410;DHT22;23275;48.914;12.566;2023-05-29T01:33:03;12.70;99.90
37410;DHT22;23275;48.914;12.566;2023-05-29T01:35:29;12.60;99.90
37410;DHT22;23275;48.914;12.566;2023-05-29T01:37:55;12.40;99.90
37410;DHT22;23275;48.914;12.566;2023-05-29T01:40:20;12.20;99.90
37410;DHT22;23275;48.914;12.566;2023-05-29T01:42:46;12.10;99.90
37410;DHT22;23275;48.914;12.566;2023-05-29T01:45:12;12.10;99.90
37410;DHT22;23275;48.914;12.566;2023-05-29T01:47:38;12.10;99.90
37410;DHT22;23275;48.914;12.566;2023-05-29T01:50:05;12.00;99.90
37410;DHT22;23275;48.914;12.566;2023-05-29T01:52:31;11.90;99.90
37410;DHT22;23275;48.914;12.566;2023-05-29T01:54:57;11.90;99.90
37410;DHT22;23275;48.914;12.566;2023-05-29T01:57:23;11.80;99.90
37410;DHT22;23275;48.914;12.566;2023-05-29T01:59:49;11.80;99.90
37410;DHT22;23275;48.914;12.566;2023-05-29T02:02:15;11.80;99.90
37410;DHT22;23275;48.914;12.566;2023-05-29T02:04:41;11.80;99.90
37410;DHT22;23275;48.914;12.566;2023-05-29T02:07:06;11.80;99.90
37410;DHT22;23275;48.914;12.566;2023-05-29T02:09:34;11.80;99.90
37410;DHT22;23275;48.914;12.566;2023-05-29T02:12:00;11.80;99.90
37410;DHT22;23275;48.914;12.566;2023-05-29T02:14:26;11.80;99.90
37410;DHT22;23275;48.914;12.566;2023-05-29T02:16:51;11.70;99.90
37410;DHT22;23275;48.914;12.566;2023-05-29T02:19:20;11.70;99.90
37410;DHT22;23275;48.914;12.566;2023-05-29T02:21:47;11.70;99.90
37410;DHT22;23275;48.914;12.566;2023-05-29T02:24:13;11.70;99.90
37410;DHT22;23275;48.914;12.566;2023-05-29T02:26:38;11.70;99.90
37410;DHT22;23275;48.914;12.566;2023-05-29T02:29:04;11.70;99.90
37410;DHT22;23275;48.914;12.566;2023-05-29T02:31:32;11.70;99.90
37410;DHT22;23275;48.914;12.566;2023-05-29T02:33:58;11.70;99.90
37410;DHT22;23275;48.914;12.566;2023-05-29T02:36:24;11.70;99.90
37410;DHT22;23275;48.914;12.566;2023-05-29T02:38:49;11.60;99.90
37410;DHT22;23275;48.914;12.566;2023-05-29T02:41:15;11.60;99.90
37410;DHT22;23275;48.914;12.566;2023-05-29T02:43:40;11.60;99.90
37410;DHT22;23275;48.914;12.566;2023-05-29T02:46:06;11.60;99.90
37410;DHT22;23275;48.914;12.566;2023-05-29T02:48:32;11.60;99.90
37410;DHT22;23275;48.914;12.566;2023-05-29T02:50:57;11.60;99.90
37410;DHT22;23275;48.914;12.566;2023-05-29T02:53:23;11.50;99.90
37410;DHT22;23275;48.914;12.566;2023-05-29T02:55:49;11.50;99.90
37410;DHT22;23275;48.914;12.566;2023-05-29T02:58:16;11.40;99.90
37410;DHT22;23275;48.914;12.566;2023-05-29T03:00:42;11.40;99.90
37410;DHT22;23275;48.914;12.566;2023-05-29T03:03:07;11.40;99.90
37410;DHT22;23275;48.914;12.566;2023-05-29T03:05:33;11.30;99.90
37410;DHT22;23275;48.914;12.566;2023-05-29T03:07:58;11.30;99.90
37410;DHT22;23275;48.914;12.566;2023-05-29T03:10:24;11.30;99.90
37410;DHT22;23275;48.914;12.566;2023-05-29T03:12:49;11.30;99.90
37410;DHT22;23275;48.914;12.566;2023-05-29T03:15:16;11.30;99.90
37410;DHT22;23275;48.914;12.566;2023-05-29T03:17:45;11.40;99.90
37410;DHT22;23275;48.914;12.566;2023-05-29T03:20:11;11.40;99.90
37410;DHT22;23275;48.914;12.566;2023-05-29T03:22:36;11.40;99.90
37410;DHT22;23275;48.914;12.566;2023-05-29T03:25:03;11.40;99.90
37410;DHT22;23275;48.914;12.566;2023-05-29T03:27:29;11.40;99.90
37410;DHT22;23275;48.914;12.566;2023-05-29T03:29:56;11.40;99.90
37410;DHT22;23275;48.914;12.566;2023-05-29T03:32:21;11.40;99.90
37410;DHT22;23275;48.914;12.566;2023-05-29T03:34:47;11.30;99.90
37410;DHT22;23275;48.914;12.566;2023-05-29T03:37:13;11.30;99.90
37410;DHT22;23275;48.914;12.566;2023-05-29T03:39:39;11.30;99.90
37410;DHT22;23275;48.914;12.566;2023-05-29T03:42:05;11.30;99.90
37410;DHT22;23275;48.914;12.566;2023-05-29T03:44:30;11.30;99.90
37410;DHT22;23275;48.914;12.566;2023-05-29T03:46:56;11.30;99.90
37410;DHT22;23275;48.914;12.566;2023-05-29T03:49:22;11.30;99.90
37410;DHT22;23275;48.914;12.566;2023-05-29T03:51:47;11.30;99.90
37410;DHT22;23275;48.914;12.566;2023-05-29T03:54:13;11.30;99.90
37410;DHT22;23275;48.914;12.566;2023-05-29T03:56:38;11.40;99.90
37410;DHT22;23275;48.914;12.566;2023-05-29T03:59:04;11.40;99.90
37410;DHT22;23275;48.914;12.566;2023-05-29T04:01:30;11.40;99.90
37410;DHT22;23275;48.914;12.566;2023-05-29T04:03:55;11.50;99.90
37410;DHT22;23275;48.914;12.566;2023-05-29T04:06:21;11.40;99.90
37410;DHT22;23275;48.914;12.566;2023-05-29T04:08:47;11.40;99.90
37410;DHT22;23275;48.914;12.566;2023-05-29T04:11:13;11.50;99.90
37410;DHT22;23275;48.914;12.566;2023-05-29T04:13:39;11.50;99.90
37410;DHT22;23275;48.914;12.566;2023-05-29T04:16:05;11.60;99.90
37410;DHT22;23275;48.914;12.566;2023-05-29T04:18:33;11.60;99.90
37410;DHT22;23275;48.914;12.566;2023-05-29T04:20:59;11.70;99.90
37410;DHT22;23275;48.914;12.566;2023-05-29T04:23:26;11.80;99.90
37410;DHT22;23275;48.914;12.566;2023-05-29T04:25:52;11.90;99.90
37410;DHT22;23275;48.914;12.566;2023-05-29T04:28:19;11.90;99.90
37410;DHT22;23275;48.914;12.566;2023-05-29T04:30:55;12.00;99.90
37410;DHT22;23275;48.914;12.566;2023-05-29T04:33:21;12.10;99.90
37410;DHT22;23275;48.914;12.566;2023-05-29T04:35:50;12.10;99.90
37410;DHT22;23275;48.914;12.566;2023-05-29T04:38:16;12.10;99.90
37410;DHT22;23275;48.914;12.566;2023-05-29T04:40:42;12.20;99.90
37410;DHT22;23275;48.914;12.566;2023-05-29T04:43:09;12.30;99.90
37410;DHT22;23275;48.914;12.566;2023-05-29T04:45:36;12.30;99.90
37410;DHT22;23275;48.914;12.566;2023-05-29T04:48:04;12.50;99.90
37410;DHT22;23275;48.914;12.566;2023-05-29T04:50:29;12.60;99.90
37410;DHT22;23275;48.914;12.566;2023-05-29T04:52:57;12.70;99.90
37410;DHT22;23275;48.914;12.566;2023-05-29T04:55:23;12.80;99.90
37410;DHT22;23275;48.914;12.566;2023-05-29T04:57:48;13.00;99.90
37410;DHT22;23275;48.914;12.566;2023-05-29T05:00:15;13.10;99.90
37410;DHT22;23275;48.914;12.566;2023-05-29T05:02:42;13.40;99.90
37410;DHT22;23275;48.914;12.566;2023-05-29T05:05:09;13.50;99.90
37410;DHT22;23275;48.914;12.566;2023-05-29T05:07:36;13.70;99.90
37410;DHT22;23275;48.914;12.566;2023-05-29T05:10:03;13.90;99.90
37410;DHT22;23275;48.914;12.566;2023-05-29T05:12:30;14.10;99.90
37410;DHT22;23275;48.914;12.566;2023-05-29T05:14:55;14.30;99.90
37410;DHT22;23275;48.914;12.566;2023-05-29T05:17:21;14.40;99.90
37410;DHT22;23275;48.914;12.566;2023-05-29T05:19:47;14.60;99.90
37410;DHT22;23275;48.914;12.566;2023-05-29T05:22:15;14.80;99.90
37410;DHT22;23275;48.914;12.566;2023-05-29T05:24:43;14.90;99.90
37410;DHT22;23275;48.914;12.566;2023-05-29T05:27:08;14.90;99.90
37410;DHT22;23275;48.914;12.566;2023-05-29T05:29:34;15.10;99.90
37410;DHT22;23275;48.914;12.566;2023-05-29T05:31:59;15.10;99.90
37410;DHT22;23275;48.914;12.566;2023-05-29T05:34:25;15.20;99.90
37410;DHT22;23275;48.914;12.566;2023-05-29T05:36:50;15.20;99.90
37410;DHT22;23275;48.914;12.566;2023-05-29T05:39:16;15.30;99.90
37410;DHT22;23275;48.914;12.566;2023-05-29T05:41:42;15.50;99.90
37410;DHT22;23275;48.914;12.566;2023-05-29T05:44:07;15.60;99.90
37410;DHT22;23275;48.914;12.566;2023-05-29T05:46:33;15.70;99.90
37410;DHT22;23275;48.914;12.566;2023-05-29T05:48:59;16.00;99.90
37410;DHT22;23275;48.914;12.566;2023-05-29T05:51:26;16.10;99.90
37410;DHT22;23275;48.914;12.566;2023-05-29T05:53:52;16.40;99.90
37410;DHT22;23275;48.914;12.566;2023-05-29T05:56:18;16.60;99.90
37410;DHT22;23275;48.914;12.566;2023-05-29T05:58:44;16.80;99.90
37410;DHT22;23275;48.914;12.566;2023-05-29T06:01:09;17.00;99.90
37410;DHT22;23275;48.914;12.566;2023-05-29T06:03:35;17.20;99.90
37410;DHT22;23275;48.914;12.566;2023-05-29T06:06:03;17.30;99.90
37410;DHT22;23275;48.914;12.566;2023-05-29T06:08:29;17.50;99.90
37410;DHT22;23275;48.914;12.566;2023-05-29T06:10:56;17.70;99.90
37410;DHT22;23275;48.914;12.566;2023-05-29T06:13:21;17.90;99.90
37410;DHT22;23275;48.914;12.566;2023-05-29T06:15:47;18.00;99.90
37410;DHT22;23275;48.914;12.566;2023-05-29T06:18:13;18.20;99.90
37410;DHT22;23275;48.914;12.566;2023-05-29T06:20:39;18.30;99.90
37410;DHT22;23275;48.914;12.566;2023-05-29T06:23:04;18.50;99.90
37410;DHT22;23275;48.914;12.566;2023-05-29T06:25:31;18.60;99.90
37410;DHT22;23275;48.914;12.566;2023-05-29T06:28:00;18.80;99.90
37410;DHT22;23275;48.914;12.566;2023-05-29T06:30:26;19.00;99.90
37410;DHT22;23275;48.914;12.566;2023-05-29T06:32:52;19.20;99.90
37410;DHT22;23275;48.914;12.566;2023-05-29T06:35:18;19.30;99.90
37410;DHT22;23275;48.914;12.566;2023-05-29T06:37:44;19.50;99.90
37410;DHT22;23275;48.914;12.566;2023-05-29T06:40:11;19.60;99.90
37410;DHT22;23275;48.914;12.566;2023-05-29T06:42:37;19.80;99.90
37410;DHT22;23275;48.914;12.566;2023-05-29T06:45:03;20.00;99.90
37410;DHT22;23275;48.914;12.566;2023-05-29T06:47:28;20.10;99.90
37410;DHT22;23275;48.914;12.566;2023-05-29T06:49:54;20.10;99.90
37410;DHT22;23275;48.914;12.566;2023-05-29T06:52:19;20.30;99.90
37410;DHT22;23275;48.914;12.566;2023-05-29T06:54:45;20.50;99.90
37410;DHT22;23275;48.914;12.566;2023-05-29T06:57:10;20.60;99.90
37410;DHT22;23275;48.914;12.566;2023-05-29T06:59:36;20.90;99.90
37410;DHT22;23275;48.914;12.566;2023-05-29T07:02:02;20.90;99.90
37410;DHT22;23275;48.914;12.566;2023-05-29T07:04:27;21.00;99.90
37410;DHT22;23275;48.914;12.566;2023-05-29T07:06:53;21.10;99.90
37410;DHT22;23275;48.914;12.566;2023-05-29T07:09:19;21.20;99.90
37410;DHT22;23275;48.914;12.566;2023-05-29T07:11:44;21.40;99.90
37410;DHT22;23275;48.914;12.566;2023-05-29T07:14:10;21.40;99.90
37410;DHT22;23275;48.914;12.566;2023-05-29T07:16:35;21.60;99.90
37410;DHT22;23275;48.914;12.566;2023-05-29T07:19:01;21.60;99.90
37410;DHT22;23275;48.914;12.566;2023-05-29T07:21:26;21.60;99.90
37410;DHT22;23275;48.914;12.566;2023-05-29T07:23:52;21.70;99.90
37410;DHT22;23275;48.914;12.566;2023-05-29T07:26:17;21.70;99.90
37410;DHT22;23275;48.914;12.566;2023-05-29T07:28:43;21.90;99.90
37410;DHT22;23275;48.914;12.566;2023-05-29T07:31:08;22.20;99.90
37410;DHT22;23275;48.914;12.566;2023-05-29T07:33:34;22.50;99.90
37410;DHT22;23275;48.914;12.566;2023-05-29T07:36:00;22.80;99.90
37410;DHT22;23275;48.914;12.566;2023-05-29T07:38:25;22.90;99.90
37410;DHT22;23275;48.914;12.566;2023-05-29T07:40:51;23.10;99.90
37410;DHT22;23275;48.914;12.566;2023-05-29T07:43:17;23.30;99.50
37410;DHT22;23275;48.914;12.566;2023-05-29T07:45:42;23.50;95.40
37410;DHT22;23275;48.914;12.566;2023-05-29T07:48:08;23.60;98.40
37410;DHT22;23275;48.914;12.566;2023-05-29T07:50:34;23.60;96.00
37410;DHT22;23275;48.914;12.566;2023-05-29T07:53:00;23.60;94.00
37410;DHT22;23275;48.914;12.566;2023-05-29T07:55:25;23.80;94.00
37410;DHT22;23275;48.914;12.566;2023-05-29T07:57:51;23.80;93.80
37410;DHT22;23275;48.914;12.566;2023-05-29T08:00:16;24.00;92.20
37410;DHT22;23275;48.914;12.566;2023-05-29T08:02:42;24.20;92.80
37410;DHT22;23275;48.914;12.566;2023-05-29T08:05:08;24.40;91.70
37410;DHT22;23275;48.914;12.566;2023-05-29T08:07:35;24.50;90.40
37410;DHT22;23275;48.914;12.566;2023-05-29T08:10:00;24.60;91.00
37410;DHT22;23275;48.914;12.566;2023-05-29T08:12:26;24.60;88.40
37410;DHT22;23275;48.914;12.566;2023-05-29T08:14:51;24.60;84.90
37410;DHT22;23275;48.914;12.566;2023-05-29T08:17:17;24.70;89.30
37410;DHT22;23275;48.914;12.566;2023-05-29T08:19:42;25.00;87.70
37410;DHT22;23275;48.914;12.566;2023-05-29T08:22:12;25.30;90.10
37410;DHT22;23275;48.914;12.566;2023-05-29T08:24:39;25.60;85.10
37410;DHT22;23275;48.914;12.566;2023-05-29T08:27:04;25.60;80.30
37410;DHT22;23275;48.914;12.566;2023-05-29T08:29:30;25.70;80.20
37410;DHT22;23275;48.914;12.566;2023-05-29T08:31:56;25.70;78.20
37410;DHT22;23275;48.914;12.566;2023-05-29T08:34:21;25.70;76.40
37410;DHT22;23275;48.914;12.566;2023-05-29T08:36:47;25.80;78.80
37410;DHT22;23275;48.914;12.566;2023-05-29T08:39:12;25.80;77.80
37410;DHT22;23275;48.914;12.566;2023-05-29T08:41:56;26.10;81.00
37410;DHT22;23275;48.914;12.566;2023-05-29T08:44:24;26.10;75.90
37410;DHT22;23275;48.914;12.566;2023-05-29T08:46:55;26.10;75.90
37410;DHT22;23275;48.914;12.566;2023-05-29T08:49:21;26.10;71.40
37410;DHT22;23275;48.914;12.566;2023-05-29T08:52:09;26.30;72.90
37410;DHT22;23275;48.914;12.566;2023-05-29T08:54:37;26.50;75.90
37410;DHT22;23275;48.914;12.566;2023-05-29T08:57:03;26.50;74.20
37410;DHT22;23275;48.914;12.566;2023-05-29T08:59:30;26.70;72.20
37410;DHT22;23275;48.914;12.566;2023-05-29T09:01:56;26.70;70.10
37410;DHT22;23275;48.914;12.566;2023-05-29T09:04:22;26.60;63.80
37410;DHT22;23275;48.914;12.566;2023-05-29T09:06:49;26.80;69.40
37410;DHT22;23275;48.914;12.566;2023-05-29T09:09:15;27.10;68.80
37410;DHT22;23275;48.914;12.566;2023-05-29T09:11:41;27.40;67.70
37410;DHT22;23275;48.914;12.566;2023-05-29T09:14:33;27.80;66.90
37410;DHT22;23275;48.914;12.566;2023-05-29T09:16:59;27.90;66.60
37410;DHT22;23275;48.914;12.566;2023-05-29T09:19:26;28.30;63.30
37410;DHT22;23275;48.914;12.566;2023-05-29T09:21:51;28.60;62.00
37410;DHT22;23275;48.914;12.566;2023-05-29T09:24:17;28.90;60.70
37410;DHT22;23275;48.914;12.566;2023-05-29T09:26:49;29.00;58.10
37410;DHT22;23275;48.914;12.566;2023-05-29T09:29:15;29.20;61.80
37410;DHT22;23275;48.914;12.566;2023-05-29T09:31:48;29.40;62.00
37410;DHT22;23275;48.914;12.566;2023-05-29T09:34:14;29.30;60.00
37410;DHT22;23275;48.914;12.566;2023-05-29T09:36:39;29.20;56.60
37410;DHT22;23275;48.914;12.566;2023-05-29T09:39:06;29.20;61.40
37410;DHT22;23275;48.914;12.566;2023-05-29T09:41:41;29.10;57.30
37410;DHT22;23275;48.914;12.566;2023-05-29T09:44:07;29.30;58.20
37410;DHT22;23275;48.914;12.566;2023-05-29T09:46:36;29.70;57.10
37410;DHT22;23275;48.914;12.566;2023-05-29T09:49:02;29.60;57.10
37410;DHT22;23275;48.914;12.566;2023-05-29T09:51:31;29.90;56.20
37410;DHT22;23275;48.914;12.566;2023-05-29T09:53:56;30.00;61.60
37410;DHT22;23275;48.914;12.566;2023-05-29T09:56:26;30.20;57.30
37410;DHT22;23275;48.914;12.566;2023-05-29T09:58:54;30.20;56.80
37410;DHT22;23275;48.914;12.566;2023-05-29T10:01:22;30.00;55.20
37410;DHT22;23275;48.914;12.566;2023-05-29T10:03:47;30.30;55.70
37410;DHT22;23275;48.914;12.566;2023-05-29T10:06:17;30.70;57.00
37410;DHT22;23275;48.914;12.566;2023-05-29T10:08:46;30.90;54.70
37410;DHT22;23275;48.914;12.566;2023-05-29T10:11:20;31.20;51.40
37410;DHT22;23275;48.914;12.566;2023-05-29T10:13:50;31.90;52.10
37410;DHT22;23275;48.914;12.566;2023-05-29T10:16:22;32.60;48.60
37410;DHT22;23275;48.914;12.566;2023-05-29T10:18:53;33.60;52.50
37410;DHT22;23275;48.914;12.566;2023-05-29T10:21:25;34.30;48.00
37410;DHT22;23275;48.914;12.566;2023-05-29T10:23:52;34.10;48.90
37410;DHT22;23275;48.914;12.566;2023-05-29T10:26:26;33.90;52.80
37410;DHT22;23275;48.914;12.566;2023-05-29T10:29:03;33.70;49.70
37410;DHT22;23275;48.914;12.566;2023-05-29T10:31:39;33.60;50.00
37410;DHT22;23275;48.914;12.566;2023-05-29T10:37:04;34.20;50.10
37410;DHT22;23275;48.914;12.566;2023-05-29T10:39:31;34.80;51.00
37410;DHT22;23275;48.914;12.566;2023-05-29T10:41:57;35.20;50.10
37410;DHT22;23275;48.914;12.566;2023-05-29T10:49:23;36.70;46.00
37410;DHT22;23275;48.914;12.566;2023-05-29T10:51:49;36.80;44.90
37410;DHT22;23275;48.914;12.566;2023-05-29T10:54:15;37.10;45.60
37410;DHT22;23275;48.914;12.566;2023-05-29T10:56:45;37.50;43.80
37410;DHT22;23275;48.914;12.566;2023-05-29T10:59:17;37.50;41.80
37410;DHT22;23275;48.914;12.566;2023-05-29T11:01:43;37.00;43.50
37410;DHT22;23275;48.914;12.566;2023-05-29T11:06:41;36.50;43.70
37410;DHT22;23275;48.914;12.566;2023-05-29T11:09:29;36.80;44.10
37410;DHT22;23275;48.914;12.566;2023-05-29T11:12:11;37.20;43.20
37410;DHT22;23275;48.914;12.566;2023-05-29T11:14:48;37.30;42.70
37410;DHT22;23275;48.914;12.566;2023-05-29T11:17:31;37.20;42.40
37410;DHT22;23275;48.914;12.566;2023-05-29T11:20:02;36.80;42.80
37410;DHT22;23275;48.914;12.566;2023-05-29T11:25:14;35.80;45.00
37410;DHT22;23275;48.914;12.566;2023-05-29T11:27:43;35.50;46.00
37410;DHT22;23275;48.914;12.566;2023-05-29T11:30:09;34.40;46.40
37410;DHT22;23275;48.914;12.566;2023-05-29T11:32:38;33.10;48.80
37410;DHT22;23275;48.914;12.566;2023-05-29T11:35:08;31.80;50.40
37410;DHT22;23275;48.914;12.566;2023-05-29T11:37:35;30.80;52.30
37410;DHT22;23275;48.914;12.566;2023-05-29T11:40:04;29.50;49.70
37410;DHT22;23275;48.914;12.566;2023-05-29T11:42:31;28.70;52.60
37410;DHT22;23275;48.914;12.566;2023-05-29T11:45:10;28.30;54.20
37410;DHT22;23275;48.914;12.566;2023-05-29T11:47:55;28.00;54.10
37410;DHT22;23275;48.914;12.566;2023-05-29T11:50:23;27.70;55.40
37410;DHT22;23275;48.914;12.566;2023-05-29T11:52:49;27.60;58.60
37410;DHT22;23275;48.914;12.566;2023-05-29T11:55:15;27.40;56.60
37410;DHT22;23275;48.914;12.566;2023-05-29T11:57:40;27.40;56.60
37410;DHT22;23275;48.914;12.566;2023-05-29T12:00:07;27.40;58.40
37410;DHT22;23275;48.914;12.566;2023-05-29T12:02:36;27.40;56.40
37410;DHT22;23275;48.914;12.566;2023-05-29T12:05:05;27.50;55.00
37410;DHT22;23275;48.914;12.566;2023-05-29T12:07:34;27.50;56.10
37410;DHT22;23275;48.914;12.566;2023-05-29T12:10:13;27.50;55.00
37410;DHT22;23275;48.914;12.566;2023-05-29T12:12:40;27.60;56.70
37410;DHT22;23275;48.914;12.566;2023-05-29T12:15:06;27.50;55.20
37410;DHT22;23275;48.914;12.566;2023-05-29T12:17:35;27.40;56.30
37410;DHT22;23275;48.914;12.566;2023-05-29T12:20:04;27.10;55.10
37410;DHT22;23275;48.914;12.566;2023-05-29T12:22:34;26.70;54.90
37410;DHT22;23275;48.914;12.566;2023-05-29T12:25:17;26.30;55.10
37410;DHT22;23275;48.914;12.566;2023-05-29T12:27:46;26.40;57.80
37410;DHT22;23275;48.914;12.566;2023-05-29T12:32:46;26.40;58.90
37410;DHT22;23275;48.914;12.566;2023-05-29T12:37:45;26.60;57.20
37410;DHT22;23275;48.914;12.566;2023-05-29T12:40:15;26.70;57.80
37410;DHT22;23275;48.914;12.566;2023-05-29T12:42:41;26.80;57.70
37410;DHT22;23275;48.914;12.566;2023-05-29T12:45:07;27.00;59.00
37410;DHT22;23275;48.914;12.566;2023-05-29T12:47:34;27.00;56.70
37410;DHT22;23275;48.914;12.566;2023-05-29T12:50:04;26.90;58.00
37410;DHT22;23275;48.914;12.566;2023-05-29T12:52:29;26.70;56.90
37410;DHT22;23275;48.914;12.566;2023-05-29T12:54:55;26.40;57.80
37410;DHT22;23275;48.914;12.566;2023-05-29T12:57:20;26.20;59.20
37410;DHT22;23275;48.914;12.566;2023-05-29T12:59:47;26.10;58.60
37410;DHT22;23275;48.914;12.566;2023-05-29T13:02:13;26.00;56.30
37410;DHT22;23275;48.914;12.566;2023-05-29T13:04:39;26.00;57.90
37410;DHT22;23275;48.914;12.566;2023-05-29T13:07:05;26.00;58.90
37410;DHT22;23275;48.914;12.566;2023-05-29T13:09:30;26.10;59.50
37410;DHT22;23275;48.914;12.566;2023-05-29T13:11:56;26.10;58.90
37410;DHT22;23275;48.914;12.566;2023-05-29T13:14:22;26.10;57.80
37410;DHT22;23275;48.914;12.566;2023-05-29T13:16:48;26.10;57.60
37410;DHT22;23275;48.914;12.566;2023-05-29T13:19:13;25.70;58.70
37410;DHT22;23275;48.914;12.566;2023-05-29T13:21:39;25.50;59.70
37410;DHT22;23275;48.914;12.566;2023-05-29T13:24:12;25.30;59.40
37410;DHT22;23275;48.914;12.566;2023-05-29T13:26:37;25.20;60.10
37410;DHT22;23275;48.914;12.566;2023-05-29T13:29:03;24.90;59.50
37410;DHT22;23275;48.914;12.566;2023-05-29T13:31:29;25.00;60.70
37410;DHT22;23275;48.914;12.566;2023-05-29T13:33:54;25.10;60.20
37410;DHT22;23275;48.914;12.566;2023-05-29T13:36:20;25.20;58.80
37410;DHT22;23275;48.914;12.566;2023-05-29T13:38:46;25.20;59.00
37410;DHT22;23275;48.914;12.566;2023-05-29T13:41:12;25.30;60.30
37410;DHT22;23275;48.914;12.566;2023-05-29T13:43:37;25.30;60.20
37410;DHT22;23275;48.914;12.566;2023-05-29T13:46:03;25.40;59.10
37410;DHT22;23275;48.914;12.566;2023-05-29T13:48:29;25.40;58.60
37410;DHT22;23275;48.914;12.566;2023-05-29T13:50:54;25.40;59.50
37410;DHT22;23275;48.914;12.566;2023-05-29T13:53:20;25.40;58.10
37410;DHT22;23275;48.914;12.566;2023-05-29T13:55:46;25.40;58.30
37410;DHT22;23275;48.914;12.566;2023-05-29T13:58:11;25.50;59.00
37410;DHT22;23275;48.914;12.566;2023-05-29T14:00:37;25.40;58.40
37410;DHT22;23275;48.914;12.566;2023-05-29T14:03:03;25.40;58.00
37410;DHT22;23275;48.914;12.566;2023-05-29T14:05:29;25.20;59.00
37410;DHT22;23275;48.914;12.566;2023-05-29T14:07:54;25.10;59.00
37410;DHT22;23275;48.914;12.566;2023-05-29T14:10:20;25.10;58.70
37410;DHT22;23275;48.914;12.566;2023-05-29T14:12:45;25.00;56.50
37410;DHT22;23275;48.914;12.566;2023-05-29T14:15:11;25.00;57.60
37410;DHT22;23275;48.914;12.566;2023-05-29T14:17:37;24.90;58.20
37410;DHT22;23275;48.914;12.566;2023-05-29T14:20:02;24.80;58.30
37410;DHT22;23275;48.914;12.566;2023-05-29T14:22:30;24.90;58.80
37410;DHT22;23275;48.914;12.566;2023-05-29T14:24:55;24.80;57.80
37410;DHT22;23275;48.914;12.566;2023-05-29T14:27:21;24.80;58.70
37410;DHT22;23275;48.914;12.566;2023-05-29T14:29:46;24.70;56.70
37410;DHT22;23275;48.914;12.566;2023-05-29T14:32:12;24.70;58.60
37410;DHT22;23275;48.914;12.566;2023-05-29T14:34:38;24.60;58.40
37410;DHT22;23275;48.914;12.566;2023-05-29T14:37:04;24.70;57.80
37410;DHT22;23275;48.914;12.566;2023-05-29T14:39:29;24.60;58.00
37410;DHT22;23275;48.914;12.566;2023-05-29T14:41:55;24.60;58.90
37410;DHT22;23275;48.914;12.566;2023-05-29T14:44:20;24.50;55.80
37410;DHT22;23275;48.914;12.566;2023-05-29T14:46:46;24.40;55.80
37410;DHT22;23275;48.914;12.566;2023-05-29T14:49:11;24.30;56.10
37410;DHT22;23275;48.914;12.566;2023-05-29T14:51:37;24.30;57.30
37410;DHT22;23275;48.914;12.566;2023-05-29T14:54:04;24.30;57.70
37410;DHT22;23275;48.914;12.566;2023-05-29T14:56:29;24.30;56.80
37410;DHT22;23275;48.914;12.566;2023-05-29T14:58:55;24.40;59.10
37410;DHT22;23275;48.914;12.566;2023-05-29T15:01:20;24.50;58.50
37410;DHT22;23275;48.914;12.566;2023-05-29T15:03:46;24.50;59.00
37410;DHT22;23275;48.914;12.566;2023-05-29T15:06:12;24.40;56.80
37410;DHT22;23275;48.914;12.566;2023-05-29T15:08:38;24.50;56.50
37410;DHT22;23275;48.914;12.566;2023-05-29T15:11:04;24.50;57.80
37410;DHT22;23275;48.914;12.566;2023-05-29T15:13:30;24.40;56.60
37410;DHT22;23275;48.914;12.566;2023-05-29T15:15:56;24.40;56.80
37410;DHT22;23275;48.914;12.566;2023-05-29T15:18:27;24.30;56.60
37410;DHT22;23275;48.914;12.566;2023-05-29T15:20:53;24.20;56.90
37410;DHT22;23275;48.914;12.566;2023-05-29T15:23:19;24.10;56.90
37410;DHT22;23275;48.914;12.566;2023-05-29T15:25:51;24.10;56.60
37410;DHT22;23275;48.914;12.566;2023-05-29T15:28:18;24.10;58.10
37410;DHT22;23275;48.914;12.566;2023-05-29T15:30:44;24.20;58.90
37410;DHT22;23275;48.914;12.566;2023-05-29T15:33:10;24.20;58.50
37410;DHT22;23275;48.914;12.566;2023-05-29T15:35:39;24.10;57.40
37410;DHT22;23275;48.914;12.566;2023-05-29T15:38:06;24.10;57.20
37410;DHT22;23275;48.914;12.566;2023-05-29T15:40:32;24.10;56.90
37410;DHT22;23275;48.914;12.566;2023-05-29T15:42:58;24.00;57.60
37410;DHT22;23275;48.914;12.566;2023-05-29T15:45:23;24.00;56.80